Newport, Delaware
Current Conditions -  °F | °C
As of 1:51 AM on Sunday 26 Oct 2014 (Local Time) from KILG Reporting Station
Broken Clouds Broken Clouds  
Wind Chill: 60°   Ceiling: 8500
Heat Index: 60°   Visibility: 10mi
Dew Point: 46°   Wind: 7mph
Humidity: 60%   Direction: 250°WSW
Pressure: 29.63"   Gusts: NA
Location:  39.7187°N, 75.6123°W
Report Text: KILG 260551Z 25006KT 10SM FEW070 BKN085 16/08 A2963 RMK AO2 SLP034 T01560078 10156 20139 56015
Loading
Personal Weather Stations






























Interactive Weather Map
Tropical Storm Tracking
New forecast layout! Learn more

10-Day Weather Forecast

Advertisements
Track Severe Weather on mobile